Commit Graph

327 Commits

Author SHA1 Message Date
GeorgeSG 81b3323616 Tweak kitchen lighting automations: 2020-05-06 02:36:42 +03:00
GeorgeSG 89297d77cb Add zwave devices 2020-05-06 01:10:45 +03:00
GeorgeSG 6a6f7ade34 Add test cards 2020-05-03 20:13:19 +03:00
GeorgeSG d6ad40a621 Refactor conditions and triggers based on sun 2020-05-03 15:52:26 +03:00
GeorgeSG c0c0beafd0 Tweak kitchen light conditions 2020-05-03 15:48:21 +03:00
GeorgeSG cf611f6cc7 Tweak kitchen light on automation 2020-05-03 15:33:17 +03:00
GeorgeSG 82eea889a0 Add tasmo admin panel 2020-05-03 15:25:45 +03:00
GeorgeSG d3b10bd4f0 Tweak purifier automations 2020-05-03 13:27:44 +03:00
GeorgeSG c20ea1fc4d Rever spotify config 2020-05-03 12:49:48 +03:00
GeorgeSG 3ce8daa9fc Leave a better trail of dependencies 2020-05-03 12:05:02 +03:00
GeorgeSG cf8b747c42 Remove configurations that are configured with config_flow. Backup 2020-05-03 11:59:26 +03:00
GeorgeSG 347cce19b2 Comment out plex config 2020-05-03 11:38:27 +03:00
GeorgeSG 8067aa0f88 0.109.3 2020-05-03 11:30:33 +03:00
GeorgeSG dcdb36633b Dont turn on the entrance lights in the wake up routine 2020-05-03 11:21:31 +03:00
GeorgeSG aca5ba85a5 Tweak climate cards and charts 2020-05-03 04:04:31 +03:00
GeorgeSG 1a80a6223f Extract scene button template 2020-05-03 03:16:03 +03:00
GeorgeSG 78345828ae Tweak progress buttons 2020-05-03 03:06:27 +03:00
GeorgeSG 095453b76d Update weather friendly names 2020-05-03 02:58:35 +03:00
GeorgeSG 27452cc15d Add allergen index card 2020-05-03 02:54:31 +03:00
GeorgeSG 7cea30cb61 Extract and streamline target humidity card 2020-05-03 02:53:00 +03:00
GeorgeSG 7e537db5f6 revert air quality unit of measurement - doesn't look good 2020-05-03 02:43:57 +03:00
GeorgeSG a1a6c4f7a0 Add titanium automation 2020-05-03 02:43:33 +03:00
GeorgeSG 072ff595a9 Tweak cobalt temperature card 2020-05-03 02:29:21 +03:00
GeorgeSG d6f5fa0703 Add cobalt and titanium sensors 2020-05-03 02:25:12 +03:00
GeorgeSG f0c2cac988 Add cobalt CPU sensor 2020-05-03 01:59:57 +03:00
GeorgeSG 3c02527c78 Minor tweaks 2020-05-03 01:41:17 +03:00
GeorgeSG 74395b16c8 Request updates of purifier manually 2020-05-03 00:50:59 +03:00
GeorgeSG d36accaabc Rename switch.titanium_power to just titanium 2020-05-03 00:44:15 +03:00
GeorgeSG 8001ec641d Refactor browser_mod to use lights. Plug in routines 2020-05-03 00:42:22 +03:00
GeorgeSG 5917fb5607 Improved Purifier UI and automation 2020-05-03 00:25:38 +03:00
GeorgeSG ad29d41b6e Fix border-radius in percentage card 2020-05-02 21:08:41 +03:00
GeorgeSG 78f413943b Tweak sonos cards 2020-05-02 20:36:09 +03:00
GeorgeSG bb4cc4d4ab use input_select.select_next 2020-05-02 20:19:37 +03:00
GeorgeSG 345f11c374 Always turn on the hallway light on motion 2020-05-02 20:14:29 +03:00
GeorgeSG c3acb38709 Update philips_airpurifier to be compatible with 1.0 2020-05-02 20:13:58 +03:00
GeorgeSG edc2488f23 Change air purifier popup title 2020-05-02 01:19:16 +03:00
GeorgeSG 9c0c722305 Add bedroom scenes 2020-05-02 00:11:15 +03:00
GeorgeSG 91b59ef6eb Split lighting module automations by rooms 2020-05-01 22:59:53 +03:00
GeorgeSG a23a12f41a Refactor indicator button 2020-05-01 22:45:47 +03:00
GeorgeSG d773e717b6 Minor tweaks 2020-05-01 22:36:18 +03:00
GeorgeSG 9e20ea8660 Refactor purifier card 2020-05-01 22:16:54 +03:00
GeorgeSG 798d1d842c Dashboards refactoring 2020-05-01 22:12:16 +03:00
GeorgeSG 6ce198db20 Refactor power on living room dashboard 2020-05-01 22:02:15 +03:00
GeorgeSG 658d28ed24 More advanced dashboards cleanup 2020-05-01 21:54:09 +03:00
GeorgeSG 57ea9eeb67 Cleanup advanced dashboards 2020-05-01 21:44:16 +03:00
GeorgeSG ca3db9d576 Add bathroom and hallway dashboards 2020-05-01 21:25:56 +03:00
GeorgeSG 5e7633b9c7 Move purifier on bedroom dashboard 2020-05-01 20:53:41 +03:00
GeorgeSG 7e03f1f9d9 Adjust popup card styles for mobile 2020-05-01 20:50:57 +03:00
GeorgeSG 66c5e72018 Add lux to kitchen dashboard 2020-05-01 20:44:04 +03:00
GeorgeSG 7b8d1d8778 Refactor camera view 2020-05-01 20:34:28 +03:00